createdAt,value
2018-10-05T00:00:16.143Z,101981.58
2018-10-05T00:01:20.326Z,101982.05
2018-10-05T00:02:24.416Z,101985.20
2018-10-05T00:03:28.534Z,101981.67
2018-10-05T00:04:32.730Z,101976.82
2018-10-05T00:05:36.942Z,101986.05
2018-10-05T00:06:41.009Z,101985.30
2018-10-05T00:07:46.385Z,101984.81
2018-10-05T00:08:50.768Z,101982.63
2018-10-05T00:09:56.101Z,101980.95
2018-10-05T00:11:00.472Z,101980.09
2018-10-05T00:12:04.646Z,101985.42
2018-10-05T00:13:08.729Z,101985.42
2018-10-05T00:14:12.793Z,101984.19
2018-10-05T00:15:16.889Z,101974.38
2018-10-05T00:16:22.195Z,101977.05
2018-10-05T00:17:27.332Z,101979.33
2018-10-05T00:18:31.649Z,101980.09
2018-10-05T00:19:35.769Z,101978.38
2018-10-05T00:20:39.933Z,101978.00
2018-10-05T00:21:44.042Z,101977.66
2018-10-05T00:22:49.101Z,101971.46
2018-10-05T00:23:53.926Z,101973.27
2018-10-05T00:24:58.023Z,101974.61
2018-10-05T00:26:02.201Z,101975.21
2018-10-05T00:27:06.372Z,101970.83
2018-10-05T00:28:10.426Z,101967.79
2018-10-05T00:29:14.483Z,101972.27
2018-10-05T00:30:20.020Z,101970.11
2018-10-05T00:31:24.157Z,101971.44
2018-10-05T00:32:28.360Z,101968.39
2018-10-05T00:33:33.290Z,101968.39
2018-10-05T00:34:37.401Z,101977.73
2018-10-05T00:35:41.536Z,101970.68
2018-10-05T00:36:46.669Z,101972.97
2018-10-05T00:37:52.318Z,101972.48
2018-10-05T00:38:56.769Z,101963.63
2018-10-05T00:40:00.861Z,101966.30
2018-10-05T00:41:06.116Z,101971.28
2018-10-05T00:42:10.235Z,101969.95
2018-10-05T00:43:14.285Z,101965.19
2018-10-05T00:44:18.838Z,101958.53
2018-10-05T00:45:22.937Z,101967.86
2018-10-05T00:46:27.740Z,101963.99
2018-10-05T00:47:32.065Z,101965.32
2018-10-05T00:48:36.897Z,101957.42
2018-10-05T00:49:40.974Z,101960.09
2018-10-05T00:50:45.091Z,101955.36
2018-10-05T00:51:50.354Z,101951.36
2018-10-05T00:52:54.687Z,101949.55
2018-10-05T00:53:58.838Z,101946.89
2018-10-05T00:55:03.102Z,101944.22
2018-10-05T00:56:07.168Z,101949.66
2018-10-05T00:57:11.294Z,101948.70
2018-10-05T00:58:15.389Z,101943.97
2018-10-05T00:59:19.572Z,101949.66
2018-10-05T01:00:23.848Z,101949.30
2018-10-05T01:01:28.088Z,101944.92
2018-10-05T01:02:34.607Z,101946.64
2018-10-05T01:03:39.525Z,101946.26
2018-10-05T01:04:43.584Z,101946.26
2018-10-05T01:05:47.717Z,101939.22
2018-10-05T01:06:51.935Z,101949.02
2018-10-05T01:07:56.005Z,101941.87
2018-10-05T01:09:00.175Z,101940.55
2018-10-05T01:10:05.066Z,101938.84
2018-10-05T01:11:09.291Z,101936.55
2018-10-05T01:12:13.345Z,101939.34
2018-10-05T01:13:17.394Z,101937.50
2018-10-05T01:14:21.441Z,101938.01
2018-10-05T01:15:26.354Z,101934.02
2018-10-05T01:16:30.498Z,101932.30
2018-10-05T01:17:34.625Z,101934.11
2018-10-05T01:18:39.408Z,101934.59
2018-10-05T01:19:43.734Z,101932.77
2018-10-05T01:20:50.300Z,101930.23
2018-10-05T01:21:55.268Z,101931.19
2018-10-05T01:22:59.340Z,101933.38
2018-10-05T01:24:04.528Z,101926.34
2018-10-05T01:25:08.631Z,101932.63
2018-10-05T01:26:13.837Z,101928.28
2018-10-05T01:27:17.978Z,101926.44
2018-10-05T01:28:22.062Z,101929.95
2018-10-05T01:29:26.117Z,101926.44
2018-10-05T01:30:30.319Z,101927.77
2018-10-05T01:31:35.313Z,101925.61
2018-10-05T01:32:41.661Z,101927.90
2018-10-05T01:33:45.810Z,101921.70
2018-10-05T01:34:50.077Z,101920.51
2018-10-05T01:35:54.818Z,101912.13
2018-10-05T01:36:59.442Z,101914.41
2018-10-05T01:38:03.543Z,101918.41
2018-10-05T01:39:07.867Z,101919.75
2018-10-05T01:40:12.063Z,101913.08
2018-10-05T01:41:16.161Z,101915.88
2018-10-05T01:42:21.068Z,101908.84
2018-10-05T01:43:28.853Z,101911.02
2018-10-05T01:44:32.993Z,101911.50
2018-10-05T01:45:37.086Z,101905.70
2018-10-05T01:46:41.222Z,101904.36
2018-10-05T01:47:45.431Z,101900.45
2018-10-05T01:48:49.568Z,101902.17
2018-10-05T01:49:53.983Z,101901.31
2018-10-05T01:50:58.084Z,101897.32
2018-10-05T01:52:02.381Z,101904.94
2018-10-05T01:53:06.494Z,101895.26
2018-10-05T01:54:10.638Z,101895.61
2018-10-05T01:55:14.767Z,101890.79
2018-10-05T01:56:18.829Z,101897.92
2018-10-05T01:57:22.987Z,101893.93
2018-10-05T01:58:28.106Z,101889.55
2018-10-05T01:59:32.252Z,101890.03
2018-10-05T02:00:36.307Z,101887.84
2018-10-05T02:01:40.390Z,101887.84
2018-10-05T02:02:44.557Z,101897.16
2018-10-05T02:03:48.687Z,101897.16
2018-10-05T02:04:52.793Z,101895.83
2018-10-05T02:05:58.095Z,101890.25
2018-10-05T02:07:02.349Z,101889.78
2018-10-05T02:08:07.602Z,101887.11
2018-10-05T02:09:12.202Z,101889.40
2018-10-05T02:10:16.259Z,101887.72
2018-10-05T02:11:20.301Z,101887.72
2018-10-05T02:12:24.522Z,101887.72
2018-10-05T02:13:28.607Z,101883.34
2018-10-05T02:14:32.725Z,101883.81
2018-10-05T02:15:37.586Z,101884.30
2018-10-05T02:16:41.718Z,101879.95
2018-10-05T02:17:46.412Z,101874.72
2018-10-05T02:18:51.004Z,101880.52
2018-10-05T02:19:55.146Z,101881.98
2018-10-05T02:21:01.217Z,101879.80
2018-10-05T02:22:06.299Z,101878.56
2018-10-05T02:23:10.399Z,101875.03
2018-10-05T02:24:14.548Z,101877.36
2018-10-05T02:25:18.653Z,101873.84
2018-10-05T02:26:23.103Z,101872.98
2018-10-05T02:27:28.445Z,101882.30
2018-10-05T02:28:33.061Z,101876.25
2018-10-05T02:29:40.065Z,101875.39
2018-10-05T02:30:46.480Z,101870.06
2018-10-05T02:31:50.541Z,101875.48
2018-10-05T02:32:55.705Z,101873.30
2018-10-05T02:33:59.786Z,101874.28
2018-10-05T02:35:06.480Z,101869.81
2018-10-05T02:36:11.091Z,101865.44
2018-10-05T02:37:15.158Z,101865.91
2018-10-05T02:38:19.938Z,101862.77
2018-10-05T02:39:24.804Z,101861.44
2018-10-05T02:40:28.930Z,101864.10
2018-10-05T02:41:33.835Z,101856.11
2018-10-05T02:42:37.986Z,101858.40
2018-10-05T02:43:42.110Z,101858.02
2018-10-05T02:44:46.269Z,101856.34
2018-10-05T02:45:50.376Z,101850.63
2018-10-05T02:46:54.569Z,101849.77
2018-10-05T02:47:58.646Z,101851.58
2018-10-05T02:49:03.043Z,101851.96
2018-10-05T02:50:08.149Z,101848.09
2018-10-05T02:51:13.097Z,101851.23
2018-10-05T02:52:17.165Z,101852.19
2018-10-05T02:53:22.378Z,101847.23
2018-10-05T02:54:26.580Z,101845.53
2018-10-05T02:55:30.745Z,101847.72
2018-10-05T02:56:35.507Z,101840.67
2018-10-05T02:57:39.677Z,101846.48
2018-10-05T02:58:43.729Z,101838.97
2018-10-05T02:59:47.806Z,101841.76
2018-10-05T03:01:03.262Z,101844.42
2018-10-05T03:02:20.472Z,101840.52
2018-10-05T03:03:24.509Z,101833.99
2018-10-05T03:04:28.742Z,101835.89
2018-10-05T03:05:32.860Z,101841.22
2018-10-05T03:06:37.172Z,101833.23
2018-10-05T03:07:41.253Z,101837.23
2018-10-05T03:08:46.465Z,101831.55
2018-10-05T03:09:50.642Z,101832.88
2018-10-05T03:10:55.162Z,101825.84
2018-10-05T03:12:00.433Z,101824.98
2018-10-05T03:13:04.606Z,101829.75
2018-10-05T03:14:08.739Z,101825.75
2018-10-05T03:15:12.863Z,101827.91
2018-10-05T03:16:17.465Z,101823.19
2018-10-05T03:17:22.418Z,101827.56
2018-10-05T03:18:26.512Z,101827.66
2018-10-05T03:19:31.013Z,101824.13
2018-10-05T03:20:35.184Z,101822.80
2018-10-05T03:21:39.846Z,101823.79
2018-10-05T03:22:43.921Z,101820.75
2018-10-05T03:23:49.330Z,101822.45
2018-10-05T03:24:53.447Z,101819.89
2018-10-05T03:25:58.124Z,101819.03
2018-10-05T03:27:02.146Z,101820.02
2018-10-05T03:28:06.482Z,101817.36
2018-10-05T03:29:10.595Z,101818.17
2018-10-05T03:30:14.767Z,101818.69
2018-10-05T03:31:19.737Z,101820.02
2018-10-05T03:32:23.865Z,101821.34
2018-10-05T03:33:28.574Z,101818.69
2018-10-05T03:34:32.635Z,101816.98
2018-10-05T03:35:36.703Z,101819.64
2018-10-05T03:36:40.734Z,101823.72
2018-10-05T03:37:45.432Z,101820.59
2018-10-05T03:38:50.368Z,101816.72
2018-10-05T03:39:54.552Z,101818.15
2018-10-05T03:40:59.694Z,101810.28
2018-10-05T03:42:03.934Z,101812.44
2018-10-05T03:43:08.233Z,101814.28
2018-10-05T03:44:12.337Z,101810.77
2018-10-05T03:45:16.416Z,101813.05
2018-10-05T03:46:20.539Z,101810.86
2018-10-05T03:47:24.596Z,101813.17
2018-10-05T03:48:28.820Z,101809.66
2018-10-05T03:49:33.956Z,101808.33
2018-10-05T03:50:38.060Z,101807.09
2018-10-05T03:51:42.843Z,101807.22
2018-10-05T03:52:47.775Z,101804.55
2018-10-05T03:53:51.982Z,101811.21
2018-10-05T03:54:56.139Z,101809.12
2018-10-05T03:56:00.310Z,101808.64
2018-10-05T03:57:04.651Z,101801.13
2018-10-05T03:58:09.526Z,101801.61
2018-10-05T03:59:13.581Z,101803.45
2018-10-05T04:00:18.237Z,101810.10
2018-10-05T04:01:22.497Z,101805.25
2018-10-05T04:02:26.617Z,101802.11
2018-10-05T04:03:30.800Z,101804.78
2018-10-05T04:04:35.043Z,101800.78
2018-10-05T04:05:39.202Z,101803.45
2018-10-05T04:06:43.261Z,101802.20
2018-10-05T04:07:47.458Z,101803.92
2018-10-05T04:08:51.589Z,101800.41
2018-10-05T04:09:55.683Z,101797.74
2018-10-05T04:10:59.878Z,101796.41
2018-10-05T04:12:04.133Z,101796.03
2018-10-05T04:13:08.277Z,101788.52
2018-10-05T04:14:12.910Z,101792.52
2018-10-05T04:15:17.219Z,101791.66
2018-10-05T04:16:22.296Z,101789.98
2018-10-05T04:17:26.378Z,101786.33
2018-10-05T04:18:30.418Z,101787.31
2018-10-05T04:19:34.675Z,101787.31
2018-10-05T04:20:38.761Z,101781.98
2018-10-05T04:21:43.118Z,101789.13
2018-10-05T04:22:47.204Z,101781.61
2018-10-05T04:23:51.337Z,101776.29
2018-10-05T04:24:56.056Z,101778.09
2018-10-05T04:26:00.229Z,101779.42
2018-10-05T04:27:04.452Z,101773.25
2018-10-05T04:28:09.956Z,101774.10
2018-10-05T04:29:14.097Z,101773.25
2018-10-05T04:30:18.144Z,101772.42
2018-10-05T04:31:22.331Z,101783.07
2018-10-05T04:32:27.881Z,101772.90
2018-10-05T04:33:32.767Z,101771.56
2018-10-05T04:34:36.842Z,101767.09
2018-10-05T04:35:41.623Z,101764.53
2018-10-05T04:36:45.874Z,101764.53
2018-10-05T04:37:50.198Z,101773.47
2018-10-05T04:38:54.329Z,101763.80
2018-10-05T04:40:00.305Z,101758.83
2018-10-05T04:41:04.517Z,101754.97
2018-10-05T04:42:10.022Z,101754.11
2018-10-05T04:43:15.172Z,101751.45
2018-10-05T04:44:19.355Z,101748.78
2018-10-05T04:45:23.501Z,101754.49
2018-10-05T04:46:31.053Z,101745.65
2018-10-05T04:47:35.270Z,101746.13
2018-10-05T04:48:39.439Z,101748.78
2018-10-05T04:49:43.717Z,101739.85
2018-10-05T04:50:47.664Z,101751.83
2018-10-05T04:51:51.741Z,101744.80
2018-10-05T04:52:55.999Z,101748.78
2018-10-05T04:54:00.144Z,101746.13
2018-10-05T04:55:04.349Z,101740.52
2018-10-05T04:56:09.044Z,101741.75
2018-10-05T04:57:13.371Z,101741.75
2018-10-05T04:58:17.593Z,101747.08
2018-10-05T04:59:21.753Z,101748.41
2018-10-05T05:00:33.700Z,101747.08
2018-10-05T05:01:37.780Z,101747.55
2018-10-05T05:02:42.059Z,101748.98
2018-10-05T05:03:46.346Z,101744.61
2018-10-05T05:04:50.412Z,101741.09
2018-10-05T05:05:55.401Z,101741.09
2018-10-05T05:06:59.509Z,101741.56
2018-10-05T05:08:04.188Z,101740.23
2018-10-05T05:09:10.260Z,101738.55
2018-10-05T05:10:14.959Z,101742.55
2018-10-05T05:11:19.087Z,101737.22
2018-10-05T05:12:23.306Z,101742.17
2018-10-05T05:13:27.401Z,101742.17
2018-10-05T05:14:31.446Z,101741.31
2018-10-05T05:15:36.951Z,101750.15
2018-10-05T05:16:41.889Z,101744.45
2018-10-05T05:17:45.977Z,101748.95
2018-10-05T05:18:50.100Z,101744.45
2018-10-05T05:19:54.229Z,101747.11
2018-10-05T05:20:58.553Z,101744.10
2018-10-05T05:22:02.686Z,101742.77
2018-10-05T05:23:06.830Z,101746.77
2018-10-05T05:24:11.638Z,101744.95
2018-10-05T05:25:16.956Z,101742.30
2018-10-05T05:26:21.768Z,101744.58
2018-10-05T05:27:25.902Z,101743.72
2018-10-05T05:28:30.678Z,101743.24
2018-10-05T05:29:35.089Z,101743.72
2018-10-05T05:30:39.279Z,101743.24
2018-10-05T05:31:43.818Z,101748.56
2018-10-05T05:32:49.005Z,101744.10
2018-10-05T05:33:53.167Z,101744.58
2018-10-05T05:34:57.366Z,101737.92
2018-10-05T05:36:01.414Z,101746.77
2018-10-05T05:37:05.623Z,101740.58
2018-10-05T05:38:09.850Z,101737.06
2018-10-05T05:39:14.006Z,101737.45
2018-10-05T05:40:18.756Z,101737.06
2018-10-05T05:41:24.092Z,101736.69
2018-10-05T05:42:28.166Z,101739.73
2018-10-05T05:43:33.067Z,101737.06
2018-10-05T05:44:37.396Z,101735.73
2018-10-05T05:45:41.592Z,101730.51
2018-10-05T05:46:45.757Z,101735.36
2018-10-05T05:47:51.676Z,101731.49
2018-10-05T05:48:55.817Z,101737.77
2018-10-05T05:50:00.013Z,101732.92
2018-10-05T05:51:04.360Z,101732.92
2018-10-05T05:52:10.110Z,101736.56
2018-10-05T05:53:14.819Z,101737.77
2018-10-05T05:54:18.943Z,101735.58
2018-10-05T05:55:23.104Z,101733.39
2018-10-05T05:56:27.353Z,101727.25
2018-10-05T05:57:31.497Z,101738.72
2018-10-05T05:58:35.666Z,101734.72
2018-10-05T05:59:39.755Z,101739.95
2018-10-05T06:00:44.408Z,101734.63
2018-10-05T06:01:48.778Z,101738.62
2018-10-05T06:02:54.701Z,101739.83
2018-10-05T06:03:59.064Z,101739.00
2018-10-05T06:05:03.239Z,101739.00
2018-10-05T06:06:07.380Z,101740.33
2018-10-05T06:07:11.579Z,101739.34
2018-10-05T06:08:17.032Z,101738.14
2018-10-05T06:09:23.618Z,101741.66
2018-10-05T06:10:27.822Z,101742.48
2018-10-05T06:11:32.151Z,101735.83
2018-10-05T06:12:36.220Z,101742.39
2018-10-05T06:13:41.006Z,101735.73
2018-10-05T06:14:45.247Z,101737.92
2018-10-05T06:15:50.632Z,101741.44
2018-10-05T06:16:54.789Z,101731.75
2018-10-05T06:17:58.841Z,101733.45
2018-10-05T06:19:03.225Z,101727.66
2018-10-05T06:20:08.515Z,101725.34
2018-10-05T06:21:12.645Z,101726.20
2018-10-05T06:22:17.061Z,101726.58
2018-10-05T06:23:21.596Z,101736.84
2018-10-05T06:24:25.657Z,101732.76
2018-10-05T06:25:29.998Z,101729.59
2018-10-05T06:26:34.193Z,101735.77
2018-10-05T06:27:38.276Z,101734.81
2018-10-05T06:28:43.198Z,101733.42
2018-10-05T06:29:47.285Z,101730.77
2018-10-05T06:30:58.809Z,101734.53
2018-10-05T06:32:03.019Z,101731.02
2018-10-05T06:33:07.220Z,101724.70
2018-10-05T06:34:11.405Z,101722.42
2018-10-05T06:35:15.637Z,101722.33
2018-10-05T06:36:19.776Z,101720.52
2018-10-05T06:37:27.374Z,101726.66
2018-10-05T06:38:31.770Z,101720.86
2018-10-05T06:39:35.952Z,101723.44
2018-10-05T06:40:40.069Z,101728.28
2018-10-05T06:41:44.382Z,101730.81
2018-10-05T06:42:48.557Z,101737.37
2018-10-05T06:43:52.912Z,101733.72
2018-10-05T06:44:57.485Z,101730.11
2018-10-05T06:46:01.690Z,101734.48
2018-10-05T06:47:07.316Z,101731.82
2018-10-05T06:48:12.393Z,101732.67
2018-10-05T06:49:16.458Z,101729.88
2018-10-05T06:50:20.960Z,101728.93
2018-10-05T06:51:24.992Z,101730.64
2018-10-05T06:52:29.141Z,101727.85
2018-10-05T06:53:34.146Z,101729.66
2018-10-05T06:54:38.273Z,101728.23
2018-10-05T06:55:42.612Z,101733.33
2018-10-05T06:56:46.851Z,101727.52
2018-10-05T06:57:51.664Z,101732.72
2018-10-05T06:58:56.616Z,101730.81
2018-10-05T07:00:00.710Z,101725.48
2018-10-05T07:01:04.988Z,101729.73
2018-10-05T07:02:09.213Z,101727.45
2018-10-05T07:03:13.372Z,101731.31
2018-10-05T07:04:18.456Z,101728.04
2018-10-05T07:05:23.197Z,101729.27
2018-10-05T07:06:27.407Z,101735.83
2018-10-05T07:07:31.575Z,101733.52
2018-10-05T07:08:36.057Z,101732.56
2018-10-05T07:09:40.220Z,101731.61
2018-10-05T07:10:44.293Z,101732.71
2018-10-05T07:11:48.378Z,101727.86
2018-10-05T07:12:53.577Z,101726.78
2018-10-05T07:13:57.686Z,101723.16
2018-10-05T07:15:01.757Z,101727.50
2018-10-05T07:16:06.212Z,101723.88
2018-10-05T07:17:11.156Z,101724.64
2018-10-05T07:18:15.166Z,101717.84
2018-10-05T07:19:20.117Z,101724.03
2018-10-05T07:20:24.489Z,101720.75
2018-10-05T07:21:28.875Z,101725.98
2018-10-05T07:22:33.659Z,101722.37
2018-10-05T07:23:37.761Z,101720.90
2018-10-05T07:24:42.065Z,101729.62
2018-10-05T07:25:46.157Z,101720.19
2018-10-05T07:26:50.772Z,101724.19
2018-10-05T07:27:55.518Z,101725.77
2018-10-05T07:29:00.543Z,101729.19
2018-10-05T07:30:04.860Z,101724.20
2018-10-05T07:31:10.213Z,101723.24
2018-10-05T07:32:14.892Z,101715.97
2018-10-05T07:33:19.586Z,101726.91
2018-10-05T07:34:24.192Z,101717.45
2018-10-05T07:35:28.387Z,101719.50
2018-10-05T07:36:33.271Z,101719.88
2018-10-05T07:37:37.380Z,101719.30
2018-10-05T07:38:41.577Z,101716.88
2018-10-05T07:39:46.307Z,101715.06
2018-10-05T07:40:50.817Z,101714.34
2018-10-05T07:41:55.017Z,101716.41
2018-10-05T07:43:00.217Z,101715.92
2018-10-05T07:44:04.309Z,101713.98
2018-10-05T07:45:08.414Z,101719.20
2018-10-05T07:46:12.490Z,101708.89
2018-10-05T07:47:16.633Z,101710.59
2018-10-05T07:48:20.778Z,101714.84
2018-10-05T07:49:24.989Z,101715.21
2018-10-05T07:50:29.145Z,101717.27
2018-10-05T07:51:35.390Z,101720.20
2018-10-05T07:52:39.459Z,101721.40
2018-10-05T07:53:43.535Z,101723.11
2018-10-05T07:54:47.631Z,101722.50
2018-10-05T07:55:51.832Z,101717.54
2018-10-05T07:56:55.918Z,101721.41
2018-10-05T07:58:00.170Z,101721.30
2018-10-05T07:59:05.517Z,101726.88
2018-10-05T08:00:09.598Z,101724.20
2018-10-05T08:01:14.237Z,101728.95
2018-10-05T08:02:18.362Z,101726.16
2018-10-05T08:03:22.461Z,101723.38
2018-10-05T08:04:27.296Z,101729.91
2018-10-05T08:05:31.591Z,101727.63
2018-10-05T08:06:35.745Z,101725.23
2018-10-05T08:07:39.932Z,101733.47
2018-10-05T08:08:44.018Z,101734.22
2018-10-05T08:09:49.302Z,101727.89
2018-10-05T08:10:54.552Z,101727.30
2018-10-05T08:11:58.754Z,101730.35
2018-10-05T08:13:03.530Z,101727.92
2018-10-05T08:14:07.661Z,101729.12
2018-10-05T08:15:12.055Z,101722.83
2018-10-05T08:16:16.116Z,101729.25
2018-10-05T08:17:20.251Z,101733.14
2018-10-05T08:18:24.485Z,101734.34
2018-10-05T08:19:28.670Z,101731.43
2018-10-05T08:20:32.895Z,101732.18
2018-10-05T08:21:38.870Z,101727.08
2018-10-05T08:22:43.082Z,101733.02
2018-10-05T08:23:47.146Z,101731.21
2018-10-05T08:24:51.249Z,101725.73
2018-10-05T08:25:55.328Z,101734.97
2018-10-05T08:27:00.511Z,101728.16
2018-10-05T08:28:05.398Z,101727.20
2018-10-05T08:29:10.368Z,101727.06
2018-10-05T08:30:14.374Z,101729.63
2018-10-05T08:31:18.603Z,101729.00
2018-10-05T08:32:22.872Z,101727.08
2018-10-05T08:33:27.038Z,101732.28
2018-10-05T08:34:31.172Z,101730.22
2018-10-05T08:35:35.313Z,101722.59
2018-10-05T08:36:39.396Z,101726.45
2018-10-05T08:37:44.229Z,101725.37
2018-10-05T08:38:48.371Z,101716.86
2018-10-05T08:39:52.627Z,101715.42
2018-10-05T08:40:57.318Z,101719.66
2018-10-05T08:42:01.977Z,101720.02
2018-10-05T08:43:07.037Z,101715.88
2018-10-05T08:44:12.398Z,101713.10
2018-10-05T08:45:16.593Z,101711.66
2018-10-05T08:46:20.677Z,101709.70
2018-10-05T08:47:24.767Z,101709.08
2018-10-05T08:48:29.644Z,101713.69
2018-10-05T08:49:33.695Z,101707.02
2018-10-05T08:50:37.826Z,101702.41
2018-10-05T08:51:42.282Z,101707.98
2018-10-05T08:52:46.349Z,101703.84
2018-10-05T08:53:51.029Z,101707.36
2018-10-05T08:54:55.935Z,101704.44
2018-10-05T08:56:01.082Z,101706.15
2018-10-05T08:57:05.114Z,101705.05
2018-10-05T08:58:09.185Z,101702.60
2018-10-05T08:59:13.457Z,101698.37
2018-10-05T09:00:17.599Z,101697.52
2018-10-05T09:01:21.689Z,101696.78
2018-10-05T09:02:25.832Z,101688.52
2018-10-05T09:03:29.959Z,101689.70
2018-10-05T09:04:34.052Z,101688.60
2018-10-05T09:05:39.068Z,101688.38
2018-10-05T09:06:43.089Z,101689.09
2018-10-05T09:07:47.237Z,101682.16
2018-10-05T09:08:51.401Z,101683.00
2018-10-05T09:09:55.530Z,101676.70
2018-10-05T09:11:00.628Z,101683.12
2018-10-05T09:12:05.160Z,101673.77
2018-10-05T09:13:09.376Z,101682.63
2018-10-05T09:14:13.596Z,101676.70
2018-10-05T09:15:18.879Z,101676.06
2018-10-05T09:16:23.653Z,101665.75
2018-10-05T09:17:28.868Z,101665.75
2018-10-05T09:18:33.001Z,101658.44
2018-10-05T09:19:37.103Z,101660.52
2018-10-05T09:20:41.209Z,101663.89
2018-10-05T09:21:46.761Z,101659.26
2018-10-05T09:22:50.963Z,101655.98
2018-10-05T09:23:56.728Z,101658.03
2018-10-05T09:25:00.855Z,101657.44
2018-10-05T09:26:05.043Z,101665.19
2018-10-05T09:27:10.383Z,101657.02
2018-10-05T09:28:14.499Z,101665.27
2018-10-05T09:29:18.548Z,101659.32
2018-10-05T09:30:23.645Z,101660.99
2018-10-05T09:31:27.830Z,101657.35
2018-10-05T09:32:32.153Z,101648.73
2018-10-05T09:33:36.309Z,101652.59
2018-10-05T09:34:40.606Z,101647.13
2018-10-05T09:35:45.431Z,101646.50
2018-10-05T09:36:49.529Z,101640.52
2018-10-05T09:37:53.817Z,101638.10
2018-10-05T09:38:58.879Z,101636.13
2018-10-05T09:40:04.738Z,101637.69
2018-10-05T09:41:09.606Z,101634.41
2018-10-05T09:42:13.692Z,101640.46
2018-10-05T09:43:17.856Z,101633.78
2018-10-05T09:44:22.124Z,101631.80
2018-10-05T09:45:26.329Z,101627.80
2018-10-05T09:46:30.523Z,101625.38
2018-10-05T09:47:34.810Z,101622.06
2018-10-05T09:48:39.053Z,101618.91
2018-10-05T09:49:43.180Z,101620.45
2018-10-05T09:50:47.389Z,101617.30
2018-10-05T09:51:52.353Z,101608.79
2018-10-05T09:52:56.777Z,101617.88
2018-10-05T09:54:01.070Z,101612.05
2018-10-05T09:55:05.414Z,101610.08
2018-10-05T09:56:09.500Z,101605.42
2018-10-05T09:57:13.898Z,101602.14
2018-10-05T09:58:17.953Z,101607.22
2018-10-05T09:59:22.262Z,101597.23
2018-10-05T10:00:31.665Z,101599.30
2018-10-05T10:01:41.236Z,101596.95
2018-10-05T10:03:00.403Z,101601.22
2018-10-05T10:04:04.561Z,101595.71
2018-10-05T10:05:08.652Z,101600.21
2018-10-05T10:06:13.496Z,101599.23
2018-10-05T10:07:17.641Z,101595.44
2018-10-05T10:08:21.795Z,101591.79
2018-10-05T10:09:26.689Z,101592.00
2018-10-05T10:10:30.732Z,101590.88
2018-10-05T10:11:35.841Z,101587.59
2018-10-05T10:12:40.621Z,101586.47
2018-10-05T10:13:44.723Z,101584.00
2018-10-05T10:14:48.940Z,101584.73
2018-10-05T10:15:53.296Z,101581.14
2018-10-05T10:16:57.998Z,101584.91
2018-10-05T10:18:02.803Z,101586.70
2018-10-05T10:19:07.873Z,101583.23
2018-10-05T10:20:12.702Z,101581.64
2018-10-05T10:21:16.882Z,101581.49
2018-10-05T10:22:21.022Z,101575.49
2018-10-05T10:23:25.161Z,101576.59
2018-10-05T10:24:30.357Z,101581.30
2018-10-05T10:25:34.547Z,101579.67
2018-10-05T10:26:38.616Z,101579.03
2018-10-05T10:27:42.784Z,101580.61
2018-10-05T10:28:47.020Z,101579.12
2018-10-05T10:29:51.000Z,101574.82
2018-10-05T10:30:55.357Z,101572.87
2018-10-05T10:32:00.505Z,101568.91
2018-10-05T10:33:05.605Z,101569.95
2018-10-05T10:34:10.137Z,101568.37
2018-10-05T10:35:14.273Z,101568.42
2018-10-05T10:36:20.811Z,101560.95
2018-10-05T10:37:24.990Z,101557.38
2018-10-05T10:38:29.190Z,101555.25
2018-10-05T10:39:33.442Z,101548.11
2018-10-05T10:40:37.583Z,101554.89
2018-10-05T10:41:41.717Z,101548.39
2018-10-05T10:42:46.948Z,101545.42
2018-10-05T10:43:51.083Z,101546.96
2018-10-05T10:44:55.428Z,101546.83
2018-10-05T10:45:59.770Z,101545.00
2018-10-05T10:47:04.803Z,101539.64
2018-10-05T10:48:12.265Z,101543.02
2018-10-05T10:49:16.476Z,101541.19
2018-10-05T10:50:21.643Z,101530.83
2018-10-05T10:51:25.868Z,101528.84
2018-10-05T10:52:30.176Z,101532.56
2018-10-05T10:53:35.436Z,101528.74
2018-10-05T10:54:39.562Z,101529.47
2018-10-05T10:55:43.670Z,101529.30
2018-10-05T10:56:47.913Z,101522.96
2018-10-05T10:57:52.150Z,101528.69
2018-10-05T10:58:56.281Z,101518.19
2018-10-05T11:00:01.292Z,101516.72
2018-10-05T11:01:05.503Z,101513.75
2018-10-05T11:02:10.871Z,101510.91
2018-10-05T11:03:15.100Z,101504.92
2018-10-05T11:04:19.186Z,101505.91
2018-10-05T11:05:23.135Z,101511.10
2018-10-05T11:06:27.289Z,101506.59
2018-10-05T11:07:32.483Z,101503.78
2018-10-05T11:08:36.544Z,101501.09
2018-10-05T11:09:41.838Z,101494.39
2018-10-05T11:10:46.127Z,101500.08
2018-10-05T11:11:50.333Z,101490.92
2018-10-05T11:12:55.067Z,101493.94
2018-10-05T11:13:59.199Z,101494.16
2018-10-05T11:15:03.399Z,101486.31
2018-10-05T11:16:07.690Z,101482.97
2018-10-05T11:17:11.919Z,101481.50
2018-10-05T11:18:16.041Z,101488.89
2018-10-05T11:19:20.263Z,101481.56
2018-10-05T11:20:24.435Z,101474.86
2018-10-05T11:21:29.238Z,101471.66
2018-10-05T11:22:33.570Z,101473.22
2018-10-05T11:23:38.403Z,101469.52
2018-10-05T11:24:42.462Z,101461.17
2018-10-05T11:25:47.569Z,101463.56
2018-10-05T11:26:51.738Z,101463.97
2018-10-05T11:27:55.949Z,101459.30
2018-10-05T11:29:00.236Z,101455.76
2018-10-05T11:30:04.783Z,101455.27
2018-10-05T11:31:09.030Z,101451.60
2018-10-05T11:32:13.122Z,101449.11
2018-10-05T11:33:17.549Z,101450.31
2018-10-05T11:34:21.590Z,101448.97
2018-10-05T11:35:26.735Z,101453.05
2018-10-05T11:36:30.930Z,101435.80
2018-10-05T11:37:35.119Z,101438.02
2018-10-05T11:38:39.352Z,101438.55
2018-10-05T11:39:43.493Z,101445.31
2018-10-05T11:40:48.300Z,101437.13
2018-10-05T11:41:53.218Z,101435.79
2018-10-05T11:42:58.175Z,101437.31
2018-10-05T11:44:02.447Z,101436.30
2018-10-05T11:45:06.689Z,101434.33
2018-10-05T11:46:11.493Z,101433.48
2018-10-05T11:47:16.482Z,101429.80
2018-10-05T11:48:20.598Z,101429.31
2018-10-05T11:49:24.738Z,101427.80
2018-10-05T11:50:28.923Z,101428.84
2018-10-05T11:51:33.116Z,101427.00
2018-10-05T11:52:37.244Z,101432.55
2018-10-05T11:53:41.486Z,101428.89
2018-10-05T11:54:45.545Z,101423.20
2018-10-05T11:55:49.699Z,101425.40
2018-10-05T11:56:53.797Z,101421.20
2018-10-05T11:57:57.921Z,101420.57
2018-10-05T11:59:02.034Z,101421.98
2018-10-05T12:00:06.365Z,101416.31
2018-10-05T12:01:10.457Z,101415.16
2018-10-05T12:02:14.731Z,101414.84
2018-10-05T12:03:18.880Z,101421.73
2018-10-05T12:04:23.010Z,101415.38
2018-10-05T12:05:27.147Z,101404.64
2018-10-05T12:06:31.289Z,101412.03
2018-10-05T12:07:36.114Z,101408.35
2018-10-05T12:08:40.321Z,101405.17
2018-10-05T12:09:44.436Z,101398.64
2018-10-05T12:10:48.602Z,101402.84
2018-10-05T12:11:52.810Z,101399.17
2018-10-05T12:12:56.912Z,101401.69
2018-10-05T12:14:01.307Z,101399.36
2018-10-05T12:15:05.458Z,101397.88
2018-10-05T12:16:09.676Z,101399.39